Time;durP1;ratioP1;P1;durP2;ratioP2;P2;SDS_P1;SDS_P2;PMS_P1;PMS_P2;Temp;Humidity;BMP_temperature;BMP_pressure;BME280_temperature;BME280_humidity;BME280_pressure;Samples;Min_cycle;Max_cycle;Signal;HPM_P1;HPM_P2
2022/09/13 00:00:57;;;;;;;8.98;6.25;;;;;;;10.11;78.58;101114.45;1763729;80;20987;-86
2022/09/13 00:03:26;;;;;;;7.40;6.08;;;;;;;10.09;78.58;101112.20;1768411;80;21503;-86
2022/09/13 00:05:52;;;;;;;6.22;5.37;;;;;;;10.07;78.56;101106.88;1774241;80;22382;-86
2022/09/13 00:08:19;;;;;;;8.30;5.40;;;;;;;10.06;78.63;101109.45;1755323;80;20945;-86
2022/09/13 00:10:46;;;;;;;8.93;5.75;;;;;;;10.05;78.63;101103.30;1755936;80;21115;-85
2022/09/13 00:13:13;;;;;;;7.47;5.67;;;;;;;10.05;78.65;101099.80;1769848;80;20994;-86
2022/09/13 00:15:46;;;;;;;7.33;5.30;;;;;;;10.03;78.66;101093.59;1772787;80;21034;-86
2022/09/13 00:18:13;;;;;;;9.30;6.53;;;;;;;10.01;78.64;101095.28;1784755;80;23158;-86
2022/09/13 00:20:40;;;;;;;8.50;5.67;;;;;;;9.97;78.66;101090.34;1780336;80;20951;-86
2022/09/13 00:23:07;;;;;;;6.97;5.50;;;;;;;9.96;78.69;101086.34;1753571;80;21067;-86
2022/09/13 00:25:34;;;;;;;9.28;6.05;;;;;;;9.92;78.69;101079.66;1771593;80;21042;-89
2022/09/13 00:28:02;;;;;;;9.05;5.95;;;;;;;9.91;78.73;101082.27;1762230;80;21129;-86
2022/09/13 00:30:29;;;;;;;8.60;5.70;;;;;;;9.86;78.75;101077.27;1769993;80;21659;-88
2022/09/13 00:32:56;;;;;;;7.40;5.62;;;;;;;9.85;78.77;101073.75;1766257;79;21124;-85
2022/09/13 00:35:22;;;;;;;10.35;5.67;;;;;;;9.83;78.79;101076.72;1780401;79;21100;-85
2022/09/13 00:37:49;;;;;;;10.75;5.78;;;;;;;9.81;78.79;101075.77;1775515;79;21735;-85
2022/09/13 00:40:16;;;;;;;8.88;5.75;;;;;;;9.79;78.82;101067.37;1762561;79;21074;-85
2022/09/13 00:42:43;;;;;;;10.23;5.83;;;;;;;9.77;78.88;101075.20;1764770;79;22644;-86
2022/09/13 00:45:14;;;;;;;9.00;5.92;;;;;;;9.75;78.94;101072.95;1768191;79;21364;-86
2022/09/13 00:47:55;;;;;;;6.50;5.67;;;;;;;9.74;79.00;101072.47;1768537;79;21091;-86
2022/09/13 00:50:38;;;;;;;8.45;6.10;;;;;;;9.73;79.07;101065.01;1787395;79;21133;-86
2022/09/13 00:53:17;;;;;;;7.47;5.50;;;;;;;9.72;79.08;101062.32;1787282;79;21503;-86
2022/09/13 00:55:48;;;;;;;8.23;5.90;;;;;;;9.72;79.11;101062.32;1769298;79;21904;-86
2022/09/13 00:58:24;;;;;;;8.65;5.62;;;;;;;9.71;79.14;101068.44;1783523;79;20974;-86
2022/09/13 01:03:42;;;;;;;6.58;5.17;;;;;;;9.69;79.23;101058.30;1773547;79;21105;-86
2022/09/13 01:06:12;;;;;;;6.40;4.72;;;;;;;9.69;79.20;101058.30;1763856;79;21101;-86
2022/09/13 01:08:40;;;;;;;8.08;5.97;;;;;;;9.66;79.19;101058.19;1763496;79;21763;-86
2022/09/13 01:11:10;;;;;;;7.87;5.60;;;;;;;9.67;79.27;101052.98;1789739;79;21046;-86
2022/09/13 01:13:37;;;;;;;8.75;5.75;;;;;;;9.66;79.26;101048.55;1788401;79;21754;-86
2022/09/13 01:16:04;;;;;;;8.08;5.60;;;;;;;9.64;79.19;101041.47;1780237;79;21005;-86
2022/09/13 01:18:31;;;;;;;8.05;5.12;;;;;;;9.60;79.14;101043.10;1771739;80;21054;-86
2022/09/13 01:21:40;;;;;;;9.48;5.70;;;;;;;9.59;79.19;101045.28;1765164;79;21871;-87
2022/09/13 01:24:27;;;;;;;7.53;5.53;;;;;;;9.57;79.19;101046.93;1773203;79;21648;-86
2022/09/13 01:27:17;;;;;;;10.48;5.30;;;;;;;9.53;79.20;101040.70;1765145;79;21075;-87
2022/09/13 01:30:17;;;;;;;7.37;5.70;;;;;;;9.50;79.22;101039.28;1776906;79;21070;-85
2022/09/13 01:33:26;;;;;;;6.87;5.62;;;;;;;9.48;79.25;101044.91;1722248;80;21067;-85
2022/09/13 01:36:04;;;;;;;6.50;5.03;;;;;;;9.45;79.24;101045.22;1745263;80;21813;-86
2022/09/13 01:38:56;;;;;;;6.20;4.80;;;;;;;9.41;79.19;101042.91;1745349;80;21112;-86
2022/09/13 01:42:05;;;;;;;6.95;4.85;;;;;;;9.39;79.30;101038.45;1745523;80;21068;-88
2022/09/13 01:44:54;;;;;;;6.47;5.40;;;;;;;9.36;79.24;101034.39;1667397;84;21087;-87
2022/09/13 01:47:28;;;;;;;8.25;5.28;;;;;;;9.34;79.31;101033.02;1665350;85;21145;-87
2022/09/13 01:50:12;;;;;;;7.17;4.60;;;;;;;9.31;79.31;101019.37;1680290;83;21824;-86
2022/09/13 01:52:50;;;;;;;7.05;4.97;;;;;;;9.29;79.28;101022.36;1678091;83;21101;-86
2022/09/13 01:55:41;;;;;;;11.20;5.70;;;;;;;9.28;79.29;101024.50;1680290;84;21111;-86
2022/09/13 01:58:20;;;;;;;7.12;4.62;;;;;;;9.26;79.28;101024.88;1666518;84;21026;-85
2022/09/13 02:00:55;;;;;;;6.37;4.62;;;;;;;9.22;79.31;101024.73;1679810;84;21643;-87
2022/09/13 02:03:30;;;;;;;6.00;4.78;;;;;;;9.22;79.31;101021.67;1667659;85;21760;-87
2022/09/13 02:06:13;;;;;;;7.00;4.72;;;;;;;9.19;79.26;101020.24;1679410;83;21219;-86
2022/09/13 02:08:53;;;;;;;8.18;4.50;;;;;;;9.16;79.27;101024.09;1680604;85;21138;-88
2022/09/13 02:11:21;;;;;;;8.95;5.28;;;;;;;9.13;79.28;101023.55;1641415;84;21144;-86
2022/09/13 02:14:07;;;;;;;6.75;4.87;;;;;;;9.11;79.37;101017.34;1634613;85;21533;-86
2022/09/13 02:16:41;;;;;;;6.55;4.42;;;;;;;9.11;79.44;101019.98;1717655;81;21783;-86
2022/09/13 02:19:17;;;;;;;5.62;4.37;;;;;;;9.11;79.45;101019.09;1746561;80;21079;-86
2022/09/13 02:21:48;;;;;;;7.92;4.75;;;;;;;9.09;79.43;101016.84;1776251;80;21134;-88
2022/09/13 02:24:18;;;;;;;6.03;4.42;;;;;;;9.09;79.49;101011.16;1754485;80;21112;-86
2022/09/13 02:26:46;;;;;;;5.53;4.47;;;;;;;9.07;79.47;101008.90;1774576;80;21024;-89
2022/09/13 02:29:16;;;;;;;4.85;4.15;;;;;;;9.09;79.52;101011.16;1755210;80;21767;-86
2022/09/13 02:31:57;;;;;;;5.78;4.60;;;;;;;9.08;79.54;101005.84;1754888;79;21003;-87
2022/09/13 02:34:32;;;;;;;5.60;4.40;;;;;;;9.09;79.57;101001.97;1775369;80;21035;-86
2022/09/13 02:36:59;;;;;;;7.22;4.62;;;;;;;9.10;79.62;101001.53;1766934;80;21369;-87
2022/09/13 02:39:26;;;;;;;5.15;4.17;;;;;;;9.11;79.65;100995.45;1764769;80;20997;-87
2022/09/13 02:42:16;;;;;;;4.83;3.70;;;;;;;9.10;79.64;100994.58;1763325;80;22568;-86
2022/09/13 02:44:48;;;;;;;6.60;4.40;;;;;;;9.09;79.66;100983.58;1782293;80;21389;-88
2022/09/13 02:47:55;;;;;;;5.83;3.87;;;;;;;9.06;79.63;100976.02;1773798;80;20973;-86
2022/09/13 02:50:47;;;;;;;7.92;4.60;;;;;;;9.09;79.63;100976.13;1777104;80;21496;-87
2022/09/13 02:53:40;;;;;;;5.55;4.33;;;;;;;9.07;79.64;100968.63;1755449;80;21029;-86
2022/09/13 02:56:29;;;;;;;6.05;4.12;;;;;;;9.06;79.54;100962.88;1775049;80;22552;-86
2022/09/13 02:59:15;;;;;;;6.70;4.28;;;;;;;9.03;79.67;100947.02;1758776;80;21492;-86
2022/09/13 03:01:47;;;;;;;8.85;4.33;;;;;;;9.03;79.60;100948.33;1786352;80;20967;-86
2022/09/13 03:04:14;;;;;;;9.73;4.67;;;;;;;9.01;79.62;100940.42;1763434;80;20919;-89
2022/09/13 03:06:41;;;;;;;6.78;4.05;;;;;;;9.00;79.63;100937.73;1781810;80;21461;-89
2022/09/13 03:09:07;;;;;;;5.83;4.67;;;;;;;8.99;79.63;100930.69;1763403;80;21771;-89
2022/09/13 03:11:54;;;;;;;5.90;3.92;;;;;;;8.99;79.63;100929.38;1783233;80;21042;-88
2022/09/13 03:14:50;;;;;;;5.90;4.53;;;;;;;8.95;79.60;100920.10;1757967;80;21054;-89
2022/09/13 03:17:46;;;;;;;5.65;4.87;;;;;;;8.92;79.61;100909.91;1754657;80;21573;-87
2022/09/13 03:20:43;;;;;;;5.47;4.17;;;;;;;8.90;79.59;100908.55;1769854;80;21019;-88
2022/09/13 03:23:24;;;;;;;4.83;3.87;;;;;;;8.87;79.49;100907.11;1755257;80;21732;-86
2022/09/13 03:26:14;;;;;;;10.28;4.45;;;;;;;8.83;79.41;100906.97;1776741;79;20991;-86
2022/09/13 03:29:24;;;;;;;9.68;4.62;;;;;;;8.79;79.32;100898.09;1771928;80;21071;-86
2022/09/13 03:32:02;;;;;;;7.75;4.90;;;;;;;8.72;79.28;100901.34;1777988;80;21015;-87
2022/09/13 03:34:56;;;;;;;7.33;4.75;;;;;;;8.67;79.27;100895.95;1769434;79;21490;-86
2022/09/13 03:37:30;;;;;;;6.78;4.97;;;;;;;8.64;79.25;100895.83;1775267;79;21772;-86
2022/09/13 03:40:01;;;;;;;6.60;4.60;;;;;;;8.62;79.28;100893.57;1778374;79;21009;-86
2022/09/13 03:42:42;;;;;;;6.15;4.30;;;;;;;8.60;79.33;100887.38;1736952;81;21046;-86
2022/09/13 03:45:09;;;;;;;7.80;4.60;;;;;;;8.59;79.37;100891.25;1766888;79;21023;-86
2022/09/13 03:47:36;;;;;;;6.92;4.40;;;;;;;8.57;79.37;100887.27;1794497;79;20883;-86
2022/09/13 03:50:04;;;;;;;6.17;4.83;;;;;;;8.54;79.36;100885.44;1793103;79;22570;-82
2022/09/13 03:52:31;;;;;;;9.88;4.58;;;;;;;8.53;79.39;100888.00;1776376;79;20990;-86
2022/09/13 03:54:58;;;;;;;8.75;5.08;;;;;;;8.54;79.49;100887.17;1795151;79;21019;-85
2022/09/13 03:57:24;;;;;;;5.55;4.47;;;;;;;8.56;79.57;100890.73;1754431;81;20979;-84
2022/09/13 03:59:55;;;;;;;9.63;5.10;;;;;;;8.58;79.60;100898.64;1778916;79;22364;-84
2022/09/13 04:02:24;;;;;;;8.70;4.45;;;;;;;8.60;79.72;100896.99;1797624;79;21809;-84
2022/09/13 04:04:51;;;;;;;9.03;4.60;;;;;;;8.63;79.78;100888.78;1791490;79;21022;-84
2022/09/13 04:07:20;;;;;;;7.10;4.83;;;;;;;8.65;79.81;100891.06;1779446;79;20959;-85
2022/09/13 04:09:47;;;;;;;7.65;4.62;;;;;;;8.69;79.79;100892.03;1792340;79;21521;-85
2022/09/13 04:12:14;;;;;;;6.37;4.58;;;;;;;8.69;79.75;100878.52;1797984;79;21002;-86
2022/09/13 04:14:42;;;;;;;9.85;4.83;;;;;;;8.72;79.86;100881.23;1789818;79;21740;-87
2022/09/13 04:17:09;;;;;;;9.20;4.58;;;;;;;8.77;79.84;100881.41;1797715;79;21018;-89
2022/09/13 04:19:36;;;;;;;8.90;5.17;;;;;;;8.81;79.86;100878.04;1780850;79;21078;-86
2022/09/13 04:22:03;;;;;;;9.43;5.50;;;;;;;8.88;79.90;100866.03;1794989;79;21069;-94
2022/09/13 04:24:30;;;;;;;9.10;5.58;;;;;;;8.95;79.81;100864.97;1788119;79;21230;-92
2022/09/13 04:26:57;;;;;;;11.38;5.35;;;;;;;9.01;79.74;100856.80;1774792;79;21766;-92
2022/09/13 04:29:25;;;;;;;7.35;5.08;;;;;;;9.08;79.80;100861.42;1788732;79;21503;-93
2022/09/13 04:31:52;;;;;;;9.53;5.75;;;;;;;9.18;79.78;100848.16;1795329;79;21092;-93
2022/09/13 04:34:21;;;;;;;8.10;5.37;;;;;;;9.24;79.66;100846.63;1784762;80;21050;-93
2022/09/13 04:36:49;;;;;;;11.38;5.35;;;;;;;9.34;79.77;100847.37;1743150;80;22817;-84
2022/09/13 04:39:16;;;;;;;9.85;6.40;;;;;;;9.91;81.11;100843.86;1786314;80;21769;-94
2022/09/13 04:41:46;;;;;;;6.85;5.80;;;;;;;10.94;81.82;100841.81;1746105;81;21158;-94
2022/09/13 04:44:14;;;;;;;12.18;6.37;;;;;;;12.12;81.58;100838.78;1738851;80;21070;-93
2022/09/13 04:46:41;;;;;;;11.83;6.03;;;;;;;13.10;80.37;100835.69;1779982;80;20986;-94
2022/09/13 04:49:09;;;;;;;6.25;5.35;;;;;;;13.75;78.60;100838.89;1769071;80;21093;-93
2022/09/13 04:51:36;;;;;;;9.58;5.05;;;;;;;13.97;77.10;100842.27;1774551;80;21757;-91
2022/09/13 04:54:03;;;;;;;15.35;5.95;;;;;;;14.00;76.00;100841.00;1761263;80;21649;-96
2022/09/13 04:56:30;;;;;;;6.80;4.97;;;;;;;13.88;75.14;100832.02;1761665;80;21095;-94
2022/09/13 04:58:56;;;;;;;9.05;5.15;;;;;;;13.73;74.51;100830.05;1770347;80;21054;-94
2022/09/13 05:01:23;;;;;;;13.15;5.33;;;;;;;13.58;74.22;100826.77;1784976;80;21330;-86
2022/09/13 05:03:52;;;;;;;9.18;5.78;;;;;;;13.50;74.07;100828.42;1785834;80;22648;-87
2022/09/13 05:06:19;;;;;;;7.05;5.05;;;;;;;13.43;73.96;100822.58;1781488;80;20975;-87
2022/09/13 05:08:54;;;;;;;9.70;5.25;;;;;;;13.37;73.91;100833.96;1775601;80;21488;-86
2022/09/13 05:11:29;;;;;;;8.70;5.65;;;;;;;13.41;74.01;100821.23;1769799;80;21057;-87
2022/09/13 05:14:09;;;;;;;6.40;4.50;;;;;;;13.46;73.93;100825.25;1764484;80;21054;-87
2022/09/13 05:16:36;;;;;;;9.78;5.42;;;;;;;13.42;73.72;100824.34;1770337;80;21892;-88
2022/09/13 05:19:02;;;;;;;10.90;5.25;;;;;;;13.38;73.83;100819.45;1784122;80;21062;-87
2022/09/13 05:21:29;;;;;;;10.15;5.17;;;;;;;13.36;73.60;100818.95;1773659;80;21175;-87
2022/09/13 05:23:59;;;;;;;9.80;5.15;;;;;;;13.33;73.64;100816.28;1784109;80;21041;-86
2022/09/13 05:26:30;;;;;;;8.30;5.12;;;;;;;13.31;73.60;100821.98;1761349;79;21109;-87
2022/09/13 05:28:58;;;;;;;9.90;5.53;;;;;;;13.28;73.68;100809.55;1774625;80;22546;-87
2022/09/13 05:31:31;;;;;;;7.58;5.72;;;;;;;13.31;73.71;100807.00;1763923;80;21066;-87
2022/09/13 05:34:09;;;;;;;8.53;4.92;;;;;;;13.36;73.79;100801.77;1777719;80;21062;-87
2022/09/13 05:36:36;;;;;;;10.35;5.05;;;;;;;13.41;73.71;100804.05;1777685;80;20992;-87
2022/09/13 05:39:06;;;;;;;6.42;5.00;;;;;;;13.50;73.89;100799.33;1780067;80;21010;-87
2022/09/13 05:41:35;;;;;;;10.45;5.17;;;;;;;13.56;73.88;100796.77;1775230;80;21209;-87
2022/09/13 05:44:02;;;;;;;6.72;5.00;;;;;;;13.63;73.90;100798.63;1765288;80;20954;-87
2022/09/13 05:46:29;;;;;;;8.68;4.55;;;;;;;13.69;73.92;100796.05;1776108;80;21580;-87
2022/09/13 05:48:58;;;;;;;13.22;4.65;;;;;;;13.74;73.82;100793.05;1773464;80;21007;-87
2022/09/13 05:51:27;;;;;;;10.63;5.58;;;;;;;13.75;73.74;100785.54;1784548;80;20903;-87
2022/09/13 05:53:56;;;;;;;11.38;4.78;;;;;;;13.83;73.91;100791.37;1783523;80;21740;-87
2022/09/13 05:56:26;;;;;;;6.72;4.90;;;;;;;13.89;73.75;100785.73;1779748;80;21098;-87
2022/09/13 05:58:54;;;;;;;11.03;6.90;;;;;;;13.92;73.73;100781.77;1730621;80;20994;-87
2022/09/13 06:01:23;;;;;;;7.78;5.35;;;;;;;14.01;73.80;100781.00;1786905;80;21029;-87
2022/09/13 06:03:50;;;;;;;7.30;4.87;;;;;;;14.07;73.72;100774.89;1731489;80;21002;-87
2022/09/13 06:06:17;;;;;;;9.60;5.00;;;;;;;14.16;73.85;100774.55;1773428;80;21700;-86
2022/09/13 06:08:44;;;;;;;7.85;4.67;;;;;;;14.26;73.77;100770.68;1739410;81;21377;-87
2022/09/13 06:11:12;;;;;;;7.12;5.30;;;;;;;14.33;73.60;100772.52;1775090;80;21872;-87
2022/09/13 06:13:45;;;;;;;6.33;4.67;;;;;;;14.38;73.61;100773.02;1755073;80;21030;-87
2022/09/13 06:16:13;;;;;;;6.05;4.08;;;;;;;14.49;73.59;100772.22;1773940;80;21048;-87
2022/09/13 06:18:39;;;;;;;9.18;4.30;;;;;;;14.58;73.35;100772.34;1769399;80;21727;-87
2022/09/13 06:21:16;;;;;;;8.90;4.10;;;;;;;14.67;73.29;100772.87;1781743;80;21050;-87
2022/09/13 06:23:41;;;;;;;12.37;4.87;;;;;;;14.80;73.36;100768.12;1767993;80;21501;-87
2022/09/13 06:26:10;;;;;;;6.00;4.58;;;;;;;14.91;73.12;100755.83;1720342;80;20975;-87
2022/09/13 06:28:37;;;;;;;8.50;4.78;;;;;;;15.05;73.19;100752.39;1766862;80;20988;-87
2022/09/13 06:31:13;;;;;;;5.97;3.90;;;;;;;15.21;72.97;100755.59;1783840;80;22481;-87
2022/09/13 06:33:41;;;;;;;7.50;4.70;;;;;;;15.36;72.86;100759.66;1762467;80;21107;-87
2022/09/13 06:36:18;;;;;;;8.40;4.70;;;;;;;15.53;72.62;100758.41;1753421;80;21054;-87
2022/09/13 06:38:45;;;;;;;5.42;3.65;;;;;;;15.69;72.52;100749.19;1753275;80;21099;-87
2022/09/13 06:41:22;;;;;;;5.03;3.90;;;;;;;15.84;72.07;100749.72;1751026;80;21098;-88
2022/09/13 06:43:54;;;;;;;7.50;3.67;;;;;;;15.96;71.84;100745.80;1760559;80;21974;-87
2022/09/13 06:46:21;;;;;;;6.22;3.80;;;;;;;16.07;71.57;100740.52;1753615;80;21490;-87
2022/09/13 06:48:48;;;;;;;5.45;3.30;;;;;;;16.22;71.33;100747.18;1764010;80;21591;-87
2022/09/13 06:51:17;;;;;;;5.33;3.80;;;;;;;16.27;70.68;100744.10;1768758;80;21097;-87
2022/09/13 06:53:45;;;;;;;7.67;4.58;;;;;;;16.31;70.48;100748.53;1754417;80;21047;-87
2022/09/13 06:56:16;;;;;;;76.77;12.93;;;;;;;16.40;70.38;100736.13;1736733;81;22567;-88
2022/09/13 06:58:44;;;;;;;20.55;5.95;;;;;;;16.50;70.41;100737.47;1756443;80;21095;-87
2022/09/13 07:01:21;;;;;;;7.85;4.67;;;;;;;16.65;70.16;100738.37;1780809;80;21478;-87
2022/09/13 07:03:50;;;;;;;8.48;4.72;;;;;;;16.73;69.65;100745.01;1758483;80;20985;-87
2022/09/13 07:06:21;;;;;;;6.70;4.58;;;;;;;16.74;69.73;100741.45;1755540;80;21076;-87
2022/09/13 07:08:49;;;;;;;8.45;5.40;;;;;;;16.79;69.42;100735.69;1776931;80;22788;-87
2022/09/13 07:11:17;;;;;;;6.35;4.75;;;;;;;16.85;69.48;100729.94;1754553;80;21002;-86
2022/09/13 07:13:51;;;;;;;6.12;4.60;;;;;;;16.97;69.34;100735.71;1754340;80;20993;-87
2022/09/13 07:16:36;;;;;;;7.47;4.40;;;;;;;17.04;69.05;100728.59;1780975;80;21410;-87
2022/09/13 07:19:05;;;;;;;8.18;5.05;;;;;;;17.18;68.79;100728.58;1780922;80;20991;-87
2022/09/13 07:21:32;;;;;;;9.58;4.58;;;;;;;17.20;68.55;100726.34;1755771;80;21811;-87
2022/09/13 07:23:59;;;;;;;9.10;5.15;;;;;;;17.29;68.61;100728.11;1754614;80;21079;-87
2022/09/13 07:26:32;;;;;;;11.43;5.60;;;;;;;17.41;68.30;100728.05;1753631;80;21104;-87
2022/09/13 07:29:00;;;;;;;14.35;5.50;;;;;;;17.46;68.02;100725.39;1692065;83;21045;-87
2022/09/13 07:31:33;;;;;;;8.30;5.58;;;;;;;17.53;67.74;100722.23;1698608;83;21048;-88
2022/09/13 07:34:03;;;;;;;9.75;5.83;;;;;;;17.53;67.49;100729.80;1720084;81;22618;-87
2022/09/13 07:36:34;;;;;;;9.18;5.70;;;;;;;17.58;67.26;100723.11;1749448;80;20988;-88
2022/09/13 07:39:01;;;;;;;10.95;5.70;;;;;;;17.56;67.00;100719.13;1747240;80;21028;-87
2022/09/13 07:41:30;;;;;;;12.35;6.70;;;;;;;17.58;66.96;100717.79;1759914;80;21028;-87
2022/09/13 07:44:07;;;;;;;9.93;5.72;;;;;;;17.62;66.80;100711.10;1784326;80;20995;-87
2022/09/13 07:46:35;;;;;;;9.93;6.22;;;;;;;17.67;66.64;100714.63;1757143;80;21685;-88
2022/09/13 07:49:03;;;;;;;7.22;5.15;;;;;;;17.69;66.31;100712.84;1768803;80;21456;-87
2022/09/13 07:51:31;;;;;;;8.10;5.85;;;;;;;17.70;66.56;100707.10;1768832;80;21065;-87
2022/09/13 07:54:01;;;;;;;14.75;6.33;;;;;;;17.84;66.65;100707.92;1776093;79;21105;-88
2022/09/13 07:56:30;;;;;;;11.83;6.15;;;;;;;17.97;66.53;100702.09;1766500;80;21069;-87
2022/09/13 07:58:59;;;;;;;9.43;6.05;;;;;;;18.10;66.40;100692.70;1757886;80;21712;-87
2022/09/13 08:01:28;;;;;;;9.48;6.37;;;;;;;18.20;66.14;100691.72;1768963;80;20991;-87
2022/09/13 08:04:03;;;;;;;8.63;6.65;;;;;;;18.26;65.96;100688.58;1782968;80;21555;-87
2022/09/13 08:06:31;;;;;;;11.75;6.30;;;;;;;18.32;65.76;100686.73;1773083;80;20975;-87
2022/09/13 08:08:57;;;;;;;7.95;6.45;;;;;;;18.42;65.54;100681.78;1777407;80;21446;-87
2022/09/13 08:11:41;;;;;;;8.53;6.03;;;;;;;18.52;65.47;100679.47;1755409;80;21743;-87
2022/09/13 08:14:11;;;;;;;10.32;6.05;;;;;;;18.55;65.18;100679.91;1742466;80;20970;-87
2022/09/13 08:16:42;;;;;;;8.50;5.95;;;;;;;18.59;65.13;100674.97;1786551;80;20883;-87
2022/09/13 08:19:07;;;;;;;10.30;6.12;;;;;;;18.65;64.96;100670.91;1779433;78;21466;-88
2022/09/13 08:21:37;;;;;;;8.40;6.50;;;;;;;18.69;64.68;100669.97;1772916;80;21019;-87
2022/09/13 08:24:07;;;;;;;16.27;5.67;;;;;;;18.69;64.66;100662.44;1754771;80;21440;-87
2022/09/13 08:26:35;;;;;;;9.33;6.25;;;;;;;18.68;64.50;100653.56;1777256;80;21598;-87
2022/09/13 08:29:04;;;;;;;9.35;6.47;;;;;;;18.63;64.27;100644.72;1755066;80;21990;-87
2022/09/13 08:31:31;;;;;;;9.45;6.45;;;;;;;18.57;64.20;100639.00;1760510;80;20963;-87
2022/09/13 08:33:58;;;;;;;7.70;6.00;;;;;;;18.56;64.28;100632.34;1766009;80;20993;-88
2022/09/13 08:36:26;;;;;;;7.65;6.37;;;;;;;18.60;64.28;100626.98;1783100;79;21567;-88
2022/09/13 08:38:56;;;;;;;9.60;6.45;;;;;;;18.64;64.26;100627.84;1755053;80;21534;-87
2022/09/13 08:41:47;;;;;;;6.55;5.85;;;;;;;18.67;64.21;100632.24;1757400;80;21010;-87
2022/09/13 08:44:46;;;;;;;12.78;9.78;;;;;;;18.71;64.31;100628.64;1766600;80;21008;-89
2022/09/13 08:47:34;;;;;;;20.48;13.60;;;;;;;18.79;64.19;100625.46;1774026;80;21075;-89
2022/09/13 08:50:22;;;;;;;20.35;11.30;;;;;;;18.86;64.01;100623.17;1775315;80;22986;-89
2022/09/13 08:53:13;;;;;;;18.50;14.20;;;;;;;18.84;64.01;100620.55;1773259;80;20981;-88
2022/09/13 08:55:50;;;;;;;10.95;7.20;;;;;;;18.82;63.71;100611.65;1782129;80;20992;-88
2022/09/13 08:58:41;;;;;;;15.40;7.15;;;;;;;18.75;63.71;100610.37;1764349;80;21039;-88
2022/09/13 09:01:15;;;;;;;10.05;7.60;;;;;;;18.65;63.63;100612.26;1729478;80;21008;-89
2022/09/13 09:04:26;;;;;;;13.75;8.53;;;;;;;18.57;63.80;100612.80;1721397;80;21890;-88
2022/09/13 09:07:13;;;;;;;18.37;12.65;;;;;;;18.46;63.83;100606.23;1736272;80;21095;-88
2022/09/13 09:09:57;;;;;;;20.55;12.90;;;;;;;18.38;63.88;100599.65;1717381;80;20966;-88
2022/09/13 09:12:40;;;;;;;;;;;;;;;18.28;63.96;100599.28;1725398;80;21063;-88
2022/09/13 09:15:26;;;;;;;11.90;9.30;;;;;;;18.21;64.05;100598.93;1710321;81;20351;-88
2022/09/13 09:18:14;;;;;;;12.25;8.63;;;;;;;18.03;64.18;100577.31;1685881;83;21864;-88
2022/09/13 09:20:46;;;;;;;21.20;8.05;;;;;;;18.15;64.38;100593.63;1739541;82;20911;-88
2022/09/13 09:23:42;;;;;;;12.05;7.15;;;;;;;18.14;64.48;100595.42;1687901;83;21126;-88
2022/09/13 09:26:16;;;;;;;7.20;6.47;;;;;;;18.15;64.58;100589.21;1654823;83;21130;-88
2022/09/13 09:28:58;;;;;;;9.10;7.80;;;;;;;18.21;64.68;100587.81;1727398;82;21130;-88
2022/09/13 09:31:42;;;;;;;12.53;7.87;;;;;;;18.29;64.74;100579.75;1724069;80;21910;-87
2022/09/13 09:34:45;;;;;;;11.75;8.60;;;;;;;18.37;64.73;100575.67;1700304;82;21083;-89
2022/09/13 09:37:21;;;;;;;34.27;14.73;;;;;;;18.39;64.69;100568.55;1751483;80;21141;-88
2022/09/13 09:39:49;;;;;;;78.20;23.25;;;;;;;18.38;64.62;100574.79;1756327;80;21109;-88
2022/09/13 09:42:23;;;;;;;32.25;11.53;;;;;;;18.29;64.65;100573.09;1705014;82;21046;-87
2022/09/13 09:45:00;;;;;;;15.43;8.13;;;;;;;18.25;64.70;100574.89;1753983;80;21813;-88
2022/09/13 09:47:35;;;;;;;9.78;7.33;;;;;;;18.18;64.77;100572.30;1787178;80;21133;-88
2022/09/13 09:50:13;;;;;;;8.28;7.00;;;;;;;18.13;64.93;100576.36;1777900;80;21055;-88
2022/09/13 09:53:07;;;;;;;9.23;6.92;;;;;;;18.06;64.83;100586.63;1759617;79;21050;-88
2022/09/13 09:56:23;;;;;;;7.67;6.25;;;;;;;17.99;64.92;100576.91;1756697;80;21608;-88
2022/09/13 09:58:49;;;;;;;12.23;7.85;;;;;;;18.03;65.18;100570.66;1769224;80;21923;-88
2022/09/13 10:01:24;;;;;;;15.35;11.38;;;;;;;18.21;65.50;100569.16;1752934;80;21092;-87
2022/09/13 10:04:19;;;;;;;12.00;8.20;;;;;;;18.39;65.74;100561.88;1773101;79;21417;-87
2022/09/13 10:06:46;;;;;;;9.55;7.50;;;;;;;18.54;65.87;100556.84;1778202;80;21564;-88
2022/09/13 10:09:18;;;;;;;13.75;8.15;;;;;;;18.68;65.89;100547.38;1762624;80;21054;-87
2022/09/13 10:12:00;;;;;;;10.80;8.33;;;;;;;18.87;65.91;100545.41;1775647;80;21762;-87
2022/09/13 10:14:45;;;;;;;8.33;7.17;;;;;;;19.12;66.03;100537.95;1716832;80;21072;-87
2022/09/13 10:17:29;;;;;;;9.60;7.53;;;;;;;19.43;65.87;100530.40;1765651;80;21046;-88
2022/09/13 10:20:00;;;;;;;11.03;8.88;;;;;;;19.77;65.74;100520.09;1765359;80;21034;-87
2022/09/13 10:22:30;;;;;;;10.05;8.20;;;;;;;20.16;65.52;100516.77;1756880;80;20996;-87
2022/09/13 10:25:24;;;;;;;11.03;6.83;;;;;;;20.43;64.96;100511.80;1747812;80;21766;-88
2022/09/13 10:27:54;;;;;;;21.23;15.38;;;;;;;20.67;64.71;100502.45;1749583;80;21122;-87
2022/09/13 10:30:32;;;;;;;23.38;18.92;;;;;;;20.92;64.17;100509.48;1761001;80;21118;-89
2022/09/13 10:33:00;;;;;;;15.35;10.80;;;;;;;21.10;63.87;100505.54;1628987;85;21206;-89
2022/09/13 10:35:27;;;;;;;9.25;8.00;;;;;;;21.33;63.54;100503.20;1622399;86;21130;-87
2022/09/13 10:37:54;;;;;;;8.25;6.65;;;;;;;21.48;62.88;100499.31;1622952;86;22845;-88
2022/09/13 10:40:38;;;;;;;11.12;9.55;;;;;;;21.54;62.54;100496.48;1621493;86;21990;-86
2022/09/13 10:43:05;;;;;;;9.78;7.97;;;;;;;21.59;62.21;100491.02;1601843;86;22279;-87
2022/09/13 10:45:33;;;;;;;8.65;7.08;;;;;;;21.70;62.06;100487.62;1617775;87;21394;-87
2022/09/13 10:48:13;;;;;;;7.62;6.62;;;;;;;21.73;61.65;100474.16;1619182;87;21082;-87
2022/09/13 10:50:40;;;;;;;7.83;6.30;;;;;;;21.80;61.56;100465.95;1600650;87;21791;-87
2022/09/13 10:53:38;;;;;;;11.18;6.75;;;;;;;21.90;61.55;100460.77;1614134;87;21635;-89
2022/09/13 10:56:08;;;;;;;11.08;7.33;;;;;;;22.03;61.25;100454.62;1626440;87;21125;-89
2022/09/13 10:58:35;;;;;;;9.50;8.03;;;;;;;22.09;61.01;100455.34;1580865;87;21608;-87
2022/09/13 11:01:19;;;;;;;9.78;7.35;;;;;;;22.20;60.68;100454.16;1622719;86;22190;-87
2022/09/13 11:04:11;;;;;;;12.33;8.58;;;;;;;22.18;60.55;100450.17;1617833;86;21771;-89
2022/09/13 11:06:49;;;;;;;9.20;6.78;;;;;;;22.28;60.41;100447.70;1635873;86;21117;-87
2022/09/13 11:09:19;;;;;;;10.43;7.33;;;;;;;22.36;60.08;100442.11;1625457;86;21149;-88
2022/09/13 11:12:01;;;;;;;15.18;11.50;;;;;;;22.38;59.96;100435.38;1707585;82;21061;-88
2022/09/13 11:15:20;;;;;;;9.00;7.65;;;;;;;22.48;59.82;100435.51;1742790;80;21661;-88
2022/09/13 11:18:28;;;;;;;6.92;6.22;;;;;;;22.46;59.48;100434.67;1745200;80;22607;-88
2022/09/13 11:21:19;;;;;;;6.58;5.47;;;;;;;22.47;59.53;100431.95;1746091;80;22308;-88
2022/09/13 11:24:17;;;;;;;6.87;6.17;;;;;;;22.60;59.35;100439.63;1779719;80;21215;-89
2022/09/13 11:27:03;;;;;;;6.05;5.55;;;;;;;22.73;59.12;100440.14;1771795;80;21498;-87
2022/09/13 11:29:42;;;;;;;;;;;;;;;22.89;58.97;100436.06;1757770;80;20981;-87
2022/09/13 11:32:53;;;;;;;10.10;5.83;;;;;;;23.03;58.36;100432.94;1755172;80;22202;-87
2022/09/13 11:35:45;;;;;;;5.78;4.78;;;;;;;23.04;57.90;100430.25;1773449;80;20945;-87
2022/09/13 11:38:35;;;;;;;6.22;5.22;;;;;;;23.00;57.77;100417.82;1753975;80;21099;-87
2022/09/13 11:41:39;;;;;;;5.10;4.60;;;;;;;22.96;57.37;100406.77;1771185;80;21054;-87
2022/09/13 11:44:37;;;;;;;7.95;4.67;;;;;;;22.85;56.97;100412.94;1780034;80;21062;-86
2022/09/13 11:47:25;;;;;;;6.55;5.33;;;;;;;22.74;56.99;100407.03;1770636;79;21769;-87
2022/09/13 11:50:32;;;;;;;5.62;4.75;;;;;;;22.68;56.86;100400.92;1771684;80;20982;-87
2022/09/13 11:53:39;;;;;;;5.40;4.90;;;;;;;22.45;56.60;100381.51;1761235;79;21050;-88
2022/09/13 11:56:21;;;;;;;6.53;4.40;;;;;;;22.43;56.46;100390.50;1737949;81;21067;-87
2022/09/13 11:58:58;;;;;;;7.42;4.53;;;;;;;22.36;56.53;100385.80;1660304;83;21129;-88
2022/09/13 12:01:35;;;;;;;5.50;4.67;;;;;;;22.38;56.74;100385.30;1746182;80;23532;-88
2022/09/13 12:04:25;;;;;;;10.38;5.22;;;;;;;22.45;56.67;100384.66;1756690;80;21083;-87
2022/09/13 12:07:01;;;;;;;5.33;4.60;;;;;;;22.38;56.31;100379.06;1754318;80;21090;-87
2022/09/13 12:09:36;;;;;;;7.28;4.95;;;;;;;22.31;56.46;100374.33;1721939;81;21085;-87